Time,TemperatureF,DewpointF,PressureIn,WindDirection,WindDirectionDegrees,WindSpeedMPH,WindSpeedGustMPH,Humidity,HourlyPrecipIn,Conditions,Clouds,dailyrainin,SoftwareType,DateUTC
2013-10-16 00:13:00,34.0,31.0,30.06,NNW,327,0.0,2.0,89,0.01,,,0.33,,2013-10-16 05:13:00,
2013-10-16 00:22:00,34.0,31.0,30.05,NNW,327,0.0,2.0,90,0.01,,,0.31,,2013-10-16 05:22:00,
2013-10-16 00:43:00,33.0,30.0,30.05,NNW,327,0.0,2.0,90,0.01,,,0.31,,2013-10-16 05:43:00,
2013-10-16 00:53:00,33.0,30.0,30.05,NNW,327,0.0,0.0,90,0.00,,,0.31,,2013-10-16 05:53:00,
2013-10-16 01:12:00,32.0,30.0,30.04,NNW,327,0.0,0.0,91,0.00,,,0.31,,2013-10-16 06:12:00,
2013-10-16 01:22:00,31.0,29.0,30.04,NNW,327,0.0,0.0,91,0.00,,,0.29,,2013-10-16 06:22:00,
2013-10-16 01:43:00,31.0,29.0,30.04,NNW,327,0.0,0.0,92,0.00,,,0.29,,2013-10-16 06:43:00,
2013-10-16 01:52:00,31.0,29.0,30.03,NNW,327,0.0,0.0,93,0.00,,,0.29,,2013-10-16 06:52:00,
2013-10-16 02:11:00,31.0,29.0,30.03,NNW,327,1.0,2.0,93,0.00,,,0.29,,2013-10-16 07:11:00,
2013-10-16 02:21:00,32.0,30.0,30.03,NW,312,0.0,2.0,93,0.00,,,0.27,,2013-10-16 07:21:00,
2013-10-16 02:42:00,33.0,31.0,30.02,WSW,244,3.0,8.0,94,0.00,,,0.27,,2013-10-16 07:42:00,
2013-10-16 02:53:00,35.0,32.0,30.02,WSW,244,3.0,8.0,90,0.00,,,0.27,,2013-10-16 07:53:00,
2013-10-16 03:11:00,36.0,33.0,30.01,WNW,282,1.0,5.0,87,0.00,,,0.27,,2013-10-16 08:11:00,
2013-10-16 03:21:00,35.0,31.0,30.01,West,270,2.0,4.0,85,0.00,,,0.26,,2013-10-16 08:21:00,
2013-10-16 03:42:00,35.0,31.0,30.01,SW,217,3.0,5.0,85,0.00,,,0.26,,2013-10-16 08:42:00,
2013-10-16 03:52:00,34.0,30.0,30.01,SW,217,3.0,4.0,85,0.00,,,0.26,,2013-10-16 08:52:00,
2013-10-16 04:11:00,34.0,30.0,30.00,SW,221,2.0,5.0,86,0.00,,,0.26,,2013-10-16 09:11:00,
2013-10-16 04:22:00,34.0,30.0,29.99,SW,221,3.0,4.0,86,0.00,,,0.23,,2013-10-16 09:22:00,
2013-10-16 04:43:00,33.0,30.0,29.99,SW,221,2.0,3.0,87,0.00,,,0.23,,2013-10-16 09:43:00,
2013-10-16 04:53:00,33.0,30.0,29.98,WSW,242,2.0,3.0,87,0.00,,,0.23,,2013-10-16 09:53:00,
2013-10-16 05:12:00,34.0,31.0,29.98,West,261,1.0,5.0,87,0.00,,,0.23,,2013-10-16 10:12:00,
2013-10-16 05:23:00,34.0,30.0,29.97,West,261,1.0,4.0,86,0.00,,,0.22,,2013-10-16 10:23:00,
2013-10-16 05:42:00,34.0,30.0,29.97,WSW,252,2.0,5.0,85,0.00,,,0.22,,2013-10-16 10:42:00,
2013-10-16 05:53:00,34.0,30.0,29.97,WSW,252,1.0,3.0,85,0.00,,,0.22,,2013-10-16 10:53:00,
2013-10-16 06:12:00,34.0,30.0,29.96,WSW,252,1.0,3.0,86,0.00,,,0.22,,2013-10-16 11:12:00,
2013-10-16 06:22:00,33.0,29.0,29.96,WSW,252,1.0,2.0,86,0.00,,,0.20,,2013-10-16 11:22:00,
2013-10-16 06:42:00,33.0,30.0,29.96,WSW,252,1.0,3.0,87,0.00,,,0.20,,2013-10-16 11:42:00,
2013-10-16 06:52:00,33.0,30.0,29.95,WSW,252,1.0,4.0,87,0.00,,,0.20,,2013-10-16 11:52:00,
2013-10-16 07:12:00,33.0,30.0,29.95,WSW,252,0.0,2.0,87,0.00,,,0.20,,2013-10-16 12:12:00,
2013-10-16 07:21:00,32.0,29.0,29.94,WSW,251,1.0,3.0,87,0.00,,,0.18,,2013-10-16 12:21:00,
2013-10-16 07:42:00,32.0,29.0,29.94,WSW,251,0.0,2.0,87,0.00,,,0.18,,2013-10-16 12:42:00,
2013-10-16 07:52:00,32.0,29.0,29.93,WSW,251,0.0,1.0,88,0.00,,,0.18,,2013-10-16 12:52:00,
2013-10-16 08:11:00,32.0,29.0,29.93,WSW,251,0.0,2.0,89,0.00,,,0.18,,2013-10-16 13:11:00,
2013-10-16 08:22:00,32.0,29.0,29.93,WSW,250,0.0,3.0,89,0.00,,,0.17,,2013-10-16 13:22:00,
2013-10-16 08:42:00,32.0,29.0,29.93,WSW,250,0.0,2.0,89,0.00,,,0.17,,2013-10-16 13:42:00,
2013-10-16 08:52:00,32.0,29.0,29.93,WSW,250,2.0,3.0,89,0.00,,,0.17,,2013-10-16 13:52:00,
2013-10-16 09:11:00,32.0,29.0,29.93,WSW,250,0.0,0.0,90,0.00,,,0.17,,2013-10-16 14:11:00,
2013-10-16 09:22:00,32.0,29.0,29.93,WSW,250,0.0,1.0,89,0.00,,,0.16,,2013-10-16 14:22:00,
2013-10-16 09:42:00,33.0,31.0,29.92,WSW,248,2.0,3.0,91,0.00,,,0.16,,2013-10-16 14:42:00,
2013-10-16 09:52:00,35.0,32.0,29.92,SW,235,3.0,4.0,89,0.00,,,0.16,,2013-10-16 14:52:00,
2013-10-16 10:11:00,37.0,33.0,29.92,WSW,240,3.0,5.0,85,0.01,,,0.17,,2013-10-16 15:11:00,
2013-10-16 10:22:00,38.0,33.0,29.92,SW,219,3.0,6.0,83,0.02,,,0.17,,2013-10-16 15:22:00,
2013-10-16 10:43:00,39.0,34.0,29.92,WSW,246,5.0,7.0,82,0.03,,,0.18,,2013-10-16 15:43:00,
2013-10-16 10:53:00,40.0,35.0,29.92,SSW,210,3.0,7.0,81,0.04,,,0.19,,2013-10-16 15:53:00,
2013-10-16 11:13:00,41.0,36.0,29.91,WSW,238,1.0,8.0,81,0.05,,,0.21,,2013-10-16 16:13:00,
2013-10-16 11:23:00,43.0,37.0,29.92,WSW,243,4.0,7.0,79,0.04,,,0.19,,2013-10-16 16:23:00,
2013-10-16 11:42:00,44.0,37.0,29.91,WSW,257,2.0,9.0,77,0.05,,,0.21,,2013-10-16 16:42:00,
2013-10-16 11:53:00,46.0,38.0,29.91,West,259,4.0,10.0,73,0.04,,,0.21,,2013-10-16 16:53:00,
2013-10-16 12:12:00,48.0,39.0,29.91,SW,223,3.0,7.0,71,0.03,,,0.22,,2013-10-16 17:12:00,
2013-10-16 12:22:00,49.0,39.0,29.90,SW,236,3.0,8.0,69,0.04,,,0.22,,2013-10-16 17:22:00,
2013-10-16 12:43:00,50.0,40.0,29.90,SW,233,4.0,8.0,68,0.03,,,0.23,,2013-10-16 17:43:00,
2013-10-16 12:52:00,51.0,40.0,29.90,SSW,198,7.0,8.0,65,0.04,,,0.24,,2013-10-16 17:52:00,
2013-10-16 13:11:00,52.0,40.0,29.89,WSW,246,4.0,11.0,64,0.02,,,0.24,,2013-10-16 18:11:00,
2013-10-16 13:22:00,53.0,41.0,29.89,NNW,327,4.0,11.0,64,0.02,,,0.22,,2013-10-16 18:22:00,
2013-10-16 13:42:00,54.0,40.0,29.88,WNW,290,4.0,11.0,60,0.02,,,0.23,,2013-10-16 18:42:00,
2013-10-16 13:52:00,55.0,41.0,29.88,SW,233,4.0,10.0,60,0.02,,,0.24,,2013-10-16 18:52:00,
2013-10-16 14:11:00,56.0,41.0,29.87,SW,215,6.0,13.0,58,0.02,,,0.24,,2013-10-16 19:11:00,
2013-10-16 14:22:00,57.0,41.0,29.86,West,264,5.0,8.0,55,0.02,,,0.23,,2013-10-16 19:22:00,
2013-10-16 14:42:00,57.0,40.0,29.85,WNW,289,6.0,12.0,52,0.02,,,0.24,,2013-10-16 19:42:00,
2013-10-16 14:52:00,58.0,39.0,29.85,WNW,295,3.0,11.0,49,0.02,,,0.25,,2013-10-16 19:52:00,
2013-10-16 15:12:00,58.0,39.0,29.85,SW,234,5.0,10.0,50,0.02,,,0.25,,2013-10-16 20:12:00,
2013-10-16 15:22:00,58.0,39.0,29.84,West,263,6.0,10.0,50,0.02,,,0.23,,2013-10-16 20:22:00,
2013-10-16 15:43:00,58.0,38.0,29.84,SW,234,5.0,10.0,48,0.01,,,0.23,,2013-10-16 20:43:00,
2013-10-16 15:52:00,59.0,38.0,29.84,SW,236,5.0,11.0,46,0.01,,,0.24,,2013-10-16 20:52:00,
2013-10-16 16:11:00,59.0,37.0,29.83,NNW,336,4.0,12.0,43,0.01,,,0.24,,2013-10-16 21:11:00,
2013-10-16 16:23:00,60.0,39.0,29.83,WSW,243,4.0,9.0,46,0.02,,,0.24,,2013-10-16 21:23:00,
2013-10-16 16:44:00,61.0,40.0,29.83,NNW,337,4.0,9.0,45,0.02,,,0.24,,2013-10-16 21:44:00,
2013-10-16 16:54:00,60.0,32.0,29.83,NW,310,6.0,11.0,35,0.01,,,0.24,,2013-10-16 21:54:00,
2013-10-16 17:14:00,59.0,36.0,29.83,NW,306,3.0,7.0,42,0.02,,,0.25,,2013-10-16 22:14:00,
2013-10-16 17:24:00,58.0,36.0,29.83,NNW,338,3.0,8.0,43,0.01,,,0.24,,2013-10-16 22:24:00,
2013-10-16 17:42:00,58.0,36.0,29.83,NW,323,4.0,10.0,44,0.01,,,0.24,,2013-10-16 22:42:00,
2013-10-16 17:54:00,58.0,38.0,29.83,NW,325,4.0,8.0,48,0.01,,,0.24,,2013-10-16 22:54:00,
2013-10-16 18:12:00,58.0,39.0,29.83,NNW,329,5.0,10.0,49,0.01,,,0.25,,2013-10-16 23:12:00,
2013-10-16 18:22:00,56.0,40.0,29.83,NNW,329,4.0,7.0,54,0.01,,,0.24,,2013-10-16 23:22:00,
2013-10-16 18:42:00,55.0,40.0,29.83,NNW,333,4.0,6.0,56,0.01,,,0.24,,2013-10-16 23:42:00,
2013-10-16 18:53:00,54.0,40.0,29.83,NNW,334,3.0,5.0,59,0.00,,,0.24,,2013-10-16 23:53:00,
2013-10-16 19:11:00,54.0,41.0,29.83,NNW,331,4.0,6.0,61,0.00,,,0.24,,2013-10-17 00:11:00,
2013-10-16 19:22:00,53.0,40.0,29.83,NNW,330,4.0,5.0,62,0.01,,,0.24,,2013-10-17 00:22:00,
2013-10-16 19:42:00,52.0,40.0,29.83,NW,325,4.0,5.0,63,0.01,,,0.24,,2013-10-17 00:42:00,
2013-10-16 19:52:00,51.0,39.0,29.83,NW,325,3.0,5.0,64,0.01,,,0.24,,2013-10-17 00:52:00,
2013-10-16 20:12:00,50.0,39.0,29.84,NW,325,2.0,5.0,65,0.01,,,0.24,,2013-10-17 01:12:00,
2013-10-16 20:22:00,50.0,39.0,29.84,NW,325,2.0,4.0,66,0.00,,,0.24,,2013-10-17 01:22:00,
2013-10-16 20:42:00,50.0,40.0,29.84,NW,325,1.0,2.0,68,0.01,,,0.25,,2013-10-17 01:42:00,
2013-10-16 20:52:00,49.0,39.0,29.84,NW,325,2.0,3.0,69,0.01,,,0.25,,2013-10-17 01:52:00,
2013-10-16 21:12:00,49.0,40.0,29.85,NW,325,1.0,3.0,70,0.01,,,0.25,,2013-10-17 02:12:00,
2013-10-16 21:21:00,48.0,39.0,29.85,NW,325,0.0,2.0,71,0.01,,,0.24,,2013-10-17 02:21:00,
2013-10-16 22:12:00,48.0,40.0,29.86,NW,325,3.0,5.0,74,0.00,,,0.24,,2013-10-17 03:12:00,
2013-10-16 22:22:00,49.0,41.0,29.86,NW,317,5.0,8.0,74,0.00,,,0.23,,2013-10-17 03:22:00,
2013-10-16 22:44:00,48.0,40.0,29.86,NNW,333,4.0,7.0,75,0.01,,,0.24,,2013-10-17 03:44:00,
2013-10-16 22:54:00,48.0,41.0,29.87,NNW,332,5.0,9.0,77,0.01,,,0.24,,2013-10-17 03:54:00,
2013-10-16 23:14:00,48.0,42.0,29.87,NNW,334,5.0,8.0,79,0.01,,,0.24,,2013-10-17 04:14:00,
2013-10-16 23:24:00,48.0,41.0,29.87,NNW,338,6.0,11.0,78,0.01,,,0.24,,2013-10-17 04:24:00,
2013-10-16 23:43:00,48.0,41.0,29.88,NNW,344,6.0,11.0,77,0.00,,,0.24,,2013-10-17 04:43:00,
2013-10-16 23:54:00,48.0,40.0,29.88,NNW,331,5.0,12.0,74,0.00,,,0.24,,2013-10-17 04:54:00,